createdAt,value
2023-09-24T00:01:43.006Z,81.69
2023-09-24T00:04:16.347Z,81.26
2023-09-24T00:06:49.619Z,81.27
2023-09-24T00:09:25.041Z,81.94
2023-09-24T00:11:58.658Z,81.55
2023-09-24T00:14:32.294Z,81.50
2023-09-24T00:17:06.948Z,82.13
2023-09-24T00:19:40.686Z,81.82
2023-09-24T00:22:14.571Z,81.34
2023-09-24T00:24:48.136Z,81.80
2023-09-24T00:27:21.342Z,81.67
2023-09-24T00:29:54.544Z,81.91
2023-09-24T00:32:29.130Z,81.44
2023-09-24T00:35:02.317Z,81.81
2023-09-24T00:37:35.659Z,81.61
2023-09-24T00:40:12.307Z,81.75
2023-09-24T00:42:46.171Z,81.84
2023-09-24T00:45:19.374Z,81.80
2023-09-24T00:47:55.877Z,81.69
2023-09-24T00:50:34.319Z,82.10
2023-09-24T00:53:10.967Z,82.39
2023-09-24T00:55:44.631Z,82.34
2023-09-24T00:58:18.625Z,82.12
2023-09-24T01:00:53.875Z,82.35
2023-09-24T01:03:29.436Z,82.43
2023-09-24T01:06:02.749Z,82.56
2023-09-24T01:08:36.182Z,82.20
2023-09-24T01:11:09.625Z,82.45
2023-09-24T01:13:44.549Z,82.10
2023-09-24T01:16:19.251Z,82.35
2023-09-24T01:18:54.731Z,82.58
2023-09-24T01:21:30.426Z,82.52
2023-09-24T01:24:08.133Z,82.19
2023-09-24T01:26:41.537Z,82.51
2023-09-24T01:29:15.312Z,82.02
2023-09-24T01:31:48.525Z,82.41
2023-09-24T01:34:21.755Z,82.45
2023-09-24T01:36:55.699Z,82.49
2023-09-24T01:39:33.165Z,82.24
2023-09-24T01:42:08.729Z,81.99
2023-09-24T01:44:42.846Z,82.32
2023-09-24T01:47:16.076Z,82.22
2023-09-24T01:49:50.744Z,82.19
2023-09-24T01:52:23.996Z,82.42
2023-09-24T01:54:58.538Z,82.56
2023-09-24T01:57:31.810Z,82.71
2023-09-24T02:00:09.830Z,82.61
2023-09-24T02:02:43.385Z,82.30
2023-09-24T02:05:18.018Z,82.47
2023-09-24T02:07:52.615Z,82.34
2023-09-24T02:10:28.491Z,82.49
2023-09-24T02:13:02.673Z,82.59
2023-09-24T02:15:35.886Z,82.32
2023-09-24T02:18:11.402Z,82.44
2023-09-24T02:20:49.773Z,82.43
2023-09-24T02:23:23.735Z,82.21
2023-09-24T02:25:58.544Z,82.21
2023-09-24T02:28:31.699Z,81.79
2023-09-24T02:31:05.644Z,82.35
2023-09-24T02:33:38.946Z,82.39
2023-09-24T02:36:12.325Z,81.87
2023-09-24T02:38:46.005Z,81.91
2023-09-24T02:41:20.576Z,82.22
2023-09-24T02:43:56.063Z,82.53
2023-09-24T02:46:29.330Z,82.69
2023-09-24T02:49:02.634Z,82.59
2023-09-24T02:51:37.103Z,82.80
2023-09-24T02:54:10.600Z,82.96
2023-09-24T02:56:45.244Z,82.90
2023-09-24T02:59:18.420Z,82.91
2023-09-24T03:01:54.419Z,83.63
2023-09-24T03:04:28.854Z,83.34
2023-09-24T03:07:02.130Z,83.15
2023-09-24T03:09:35.294Z,83.06
2023-09-24T03:12:09.926Z,83.04
2023-09-24T03:14:43.066Z,82.89
2023-09-24T03:17:16.235Z,82.95
2023-09-24T03:19:49.338Z,82.69
2023-09-24T03:22:22.923Z,82.92
2023-09-24T03:24:56.042Z,82.84
2023-09-24T03:27:30.531Z,82.65
2023-09-24T03:30:04.485Z,82.82
2023-09-24T03:32:39.098Z,82.94
2023-09-24T03:35:14.628Z,83.34
2023-09-24T03:37:53.899Z,83.02
2023-09-24T03:40:29.214Z,82.96
2023-09-24T03:43:04.172Z,82.87
2023-09-24T03:45:37.467Z,82.78
2023-09-24T03:48:10.733Z,82.67
2023-09-24T03:50:44.236Z,82.60
2023-09-24T03:53:19.291Z,82.30
2023-09-24T03:55:53.992Z,82.16
2023-09-24T03:58:28.476Z,81.88
2023-09-24T04:01:10.671Z,82.74
2023-09-24T04:03:44.240Z,82.07
2023-09-24T04:06:18.345Z,81.73
2023-09-24T04:08:51.551Z,82.27
2023-09-24T04:11:28.694Z,82.01
2023-09-24T04:14:04.062Z,82.03
2023-09-24T04:16:37.272Z,81.67
2023-09-24T04:19:10.531Z,82.01
2023-09-24T04:21:43.682Z,82.51
2023-09-24T04:24:16.898Z,82.22
2023-09-24T04:26:50.232Z,82.47
2023-09-24T04:29:24.838Z,82.30
2023-09-24T04:31:57.909Z,82.40
2023-09-24T04:34:31.114Z,82.44
2023-09-24T04:37:06.496Z,82.30
2023-09-24T04:39:39.792Z,82.65
2023-09-24T04:42:12.955Z,82.51
2023-09-24T04:44:47.484Z,82.13
2023-09-24T04:47:20.587Z,82.12
2023-09-24T04:49:53.856Z,82.65
2023-09-24T04:52:27.032Z,82.69
2023-09-24T04:55:00.226Z,82.76
2023-09-24T04:57:33.473Z,82.88
2023-09-24T05:00:09.523Z,82.80
2023-09-24T05:02:42.835Z,82.18
2023-09-24T05:05:16.778Z,81.69
2023-09-24T05:07:52.091Z,81.66
2023-09-24T05:10:25.285Z,81.88
2023-09-24T05:12:58.397Z,82.76
2023-09-24T05:15:33.009Z,82.34
2023-09-24T05:18:06.441Z,81.84
2023-09-24T05:20:39.812Z,82.20
2023-09-24T05:23:15.268Z,82.01
2023-09-24T05:25:48.350Z,81.91
2023-09-24T05:28:21.450Z,82.23
2023-09-24T05:30:58.336Z,82.22
2023-09-24T05:33:31.795Z,81.96
2023-09-24T05:36:05.802Z,81.60
2023-09-24T05:38:39.120Z,81.26
2023-09-24T05:41:12.360Z,81.52
2023-09-24T05:43:48.276Z,81.90
2023-09-24T05:46:23.312Z,81.87
2023-09-24T05:48:56.542Z,81.78
2023-09-24T05:51:29.805Z,82.08
2023-09-24T05:54:03.355Z,81.94
2023-09-24T05:56:36.586Z,81.45
2023-09-24T05:59:09.892Z,81.39
2023-09-24T06:01:44.526Z,81.36
2023-09-24T06:04:18.194Z,81.40
2023-09-24T06:06:51.633Z,81.52
2023-09-24T06:09:24.814Z,81.63
2023-09-24T06:11:57.996Z,82.26
2023-09-24T06:14:32.368Z,82.08
2023-09-24T06:17:07.142Z,81.84
2023-09-24T06:19:40.456Z,81.82
2023-09-24T06:22:13.600Z,81.73
2023-09-24T06:24:46.778Z,82.74
2023-09-24T06:27:20.462Z,82.29
2023-09-24T06:29:53.887Z,82.10
2023-09-24T06:32:30.444Z,82.33
2023-09-24T06:35:04.526Z,82.85
2023-09-24T06:37:37.648Z,82.51
2023-09-24T06:40:12.134Z,82.65
2023-09-24T06:42:46.952Z,83.39
2023-09-24T06:45:20.133Z,82.49
2023-09-24T06:47:54.865Z,82.95
2023-09-24T06:50:28.278Z,82.62
2023-09-24T06:53:01.407Z,82.39
2023-09-24T06:55:41.111Z,82.18
2023-09-24T06:58:15.695Z,82.09
2023-09-24T07:00:48.812Z,82.01
2023-09-24T07:03:23.475Z,81.86
2023-09-24T07:05:56.811Z,81.73
2023-09-24T07:08:30.043Z,81.24
2023-09-24T07:11:29.202Z,80.85
2023-09-24T07:14:03.305Z,80.65
2023-09-24T07:16:36.953Z,80.03
2023-09-24T07:19:11.638Z,79.59
2023-09-24T07:21:50.229Z,78.68
2023-09-24T07:24:25.698Z,78.05
2023-09-24T07:27:03.968Z,77.86
2023-09-24T07:29:37.320Z,77.92
2023-09-24T07:32:10.536Z,77.35
2023-09-24T07:34:47.650Z,77.73
2023-09-24T07:37:20.843Z,77.47
2023-09-24T07:39:53.975Z,77.43
2023-09-24T07:42:27.113Z,76.12
2023-09-24T07:45:00.366Z,76.69
2023-09-24T07:47:33.619Z,76.30
2023-09-24T07:50:09.088Z,74.94
2023-09-24T07:52:44.282Z,75.15
2023-09-24T07:55:17.612Z,74.60
2023-09-24T07:57:50.881Z,74.63
2023-09-24T08:00:24.033Z,73.64
2023-09-24T08:02:57.571Z,72.82
2023-09-24T08:05:33.763Z,71.57
2023-09-24T08:08:07.523Z,72.10
2023-09-24T08:10:40.761Z,70.91
2023-09-24T08:13:13.955Z,70.57
2023-09-24T08:15:47.469Z,69.90
2023-09-24T08:18:23.118Z,69.45
2023-09-24T08:20:59.185Z,68.97
2023-09-24T08:23:32.473Z,69.14
2023-09-24T08:26:05.691Z,68.31
2023-09-24T08:28:38.963Z,67.88
2023-09-24T08:31:12.265Z,67.30
2023-09-24T08:33:45.578Z,67.61
2023-09-24T08:36:20.404Z,66.70
2023-09-24T08:38:53.604Z,66.72
2023-09-24T08:41:27.071Z,64.83
2023-09-24T08:44:06.307Z,64.56
2023-09-24T08:46:40.427Z,63.13
2023-09-24T08:49:15.717Z,63.33
2023-09-24T08:51:51.782Z,62.85
2023-09-24T08:54:26.624Z,62.34
2023-09-24T08:56:59.771Z,63.42
2023-09-24T08:59:33.005Z,61.33
2023-09-24T09:02:08.446Z,60.59
2023-09-24T09:04:49.507Z,59.99
2023-09-24T09:07:24.126Z,59.78
2023-09-24T09:10:00.879Z,58.70
2023-09-24T09:12:34.066Z,59.88
2023-09-24T09:15:18.274Z,59.47
2023-09-24T09:17:51.523Z,58.24
2023-09-24T09:20:42.096Z,58.14
2023-09-24T09:23:17.489Z,55.68
2023-09-24T09:25:53.402Z,55.08
2023-09-24T09:28:27.886Z,54.05
2023-09-24T09:31:06.999Z,52.72
2023-09-24T09:33:42.771Z,53.12
2023-09-24T09:36:25.880Z,52.03
2023-09-24T09:39:00.385Z,50.90
2023-09-24T09:41:35.635Z,52.16
2023-09-24T09:44:09.851Z,50.47
2023-09-24T09:46:48.352Z,51.06
2023-09-24T09:49:25.831Z,51.44
2023-09-24T09:52:02.265Z,50.88
2023-09-24T09:54:41.605Z,51.27
2023-09-24T09:57:15.703Z,50.19
2023-09-24T09:59:49.576Z,49.54
2023-09-24T10:02:22.932Z,49.69
2023-09-24T10:04:58.530Z,49.09
2023-09-24T10:07:31.892Z,49.96
2023-09-24T10:10:43.657Z,48.17
2023-09-24T10:13:51.727Z,47.60
2023-09-24T10:16:40.169Z,47.70
2023-09-24T10:19:15.168Z,48.15
2023-09-24T10:21:48.934Z,48.80
2023-09-24T10:24:49.634Z,48.83
2023-09-24T10:27:27.141Z,47.65
2023-09-24T10:30:08.838Z,48.13
2023-09-24T10:32:46.177Z,47.94
2023-09-24T10:35:20.589Z,49.56
2023-09-24T10:38:05.756Z,47.66
2023-09-24T10:41:05.420Z,48.57
2023-09-24T10:43:39.940Z,47.35
2023-09-24T10:46:29.060Z,47.04
2023-09-24T10:49:04.119Z,45.75
2023-09-24T10:51:37.310Z,44.99
2023-09-24T10:54:15.580Z,45.04
2023-09-24T10:56:49.730Z,45.18
2023-09-24T10:59:35.870Z,45.48
2023-09-24T11:02:21.436Z,46.08
2023-09-24T11:04:55.586Z,46.48
2023-09-24T11:07:28.790Z,44.50
2023-09-24T11:10:01.956Z,45.35
2023-09-24T11:12:35.118Z,44.39
2023-09-24T11:15:16.179Z,43.08
2023-09-24T11:17:51.378Z,44.56
2023-09-24T11:20:25.959Z,43.10
2023-09-24T11:23:00.464Z,43.98
2023-09-24T11:25:33.785Z,45.61
2023-09-24T11:28:07.826Z,43.84
2023-09-24T11:30:44.594Z,42.07
2023-09-24T11:33:19.819Z,42.25
2023-09-24T11:35:55.639Z,41.84
2023-09-24T11:38:31.257Z,41.88
2023-09-24T11:41:09.722Z,40.69
2023-09-24T11:43:43.237Z,40.21
2023-09-24T11:46:23.573Z,40.43
2023-09-24T11:49:00.015Z,39.63
2023-09-24T11:51:33.484Z,40.33
2023-09-24T11:54:07.218Z,41.15
2023-09-24T11:56:40.443Z,41.24
2023-09-24T11:59:13.675Z,40.87
2023-09-24T12:01:48.161Z,41.88
2023-09-24T12:04:21.377Z,40.03
2023-09-24T12:06:55.088Z,41.96
2023-09-24T12:09:28.530Z,39.60
2023-09-24T12:12:04.112Z,40.56
2023-09-24T12:14:37.236Z,40.79
2023-09-24T12:17:11.736Z,38.15
2023-09-24T12:19:44.900Z,40.17
2023-09-24T12:22:19.121Z,40.27
2023-09-24T12:24:52.382Z,40.84
2023-09-24T12:27:26.959Z,38.58
2023-09-24T12:30:00.125Z,38.03
2023-09-24T12:32:35.765Z,38.75
2023-09-24T12:35:12.232Z,39.69
2023-09-24T12:37:45.379Z,39.59
2023-09-24T12:40:18.611Z,39.50
2023-09-24T12:42:52.045Z,38.95
2023-09-24T12:45:25.345Z,39.35
2023-09-24T12:48:00.016Z,38.86
2023-09-24T12:50:34.097Z,39.35
2023-09-24T12:53:07.173Z,39.83
2023-09-24T12:55:40.338Z,39.32
2023-09-24T12:58:14.112Z,40.19
2023-09-24T13:00:47.250Z,41.40
2023-09-24T13:03:21.872Z,40.88
2023-09-24T13:05:55.158Z,40.55
2023-09-24T13:08:28.298Z,40.25
2023-09-24T13:11:01.497Z,40.15
2023-09-24T13:13:34.734Z,40.71
2023-09-24T13:16:07.981Z,37.87
2023-09-24T13:18:44.613Z,39.08
2023-09-24T13:21:18.031Z,38.27
2023-09-24T13:23:51.322Z,38.52
2023-09-24T13:26:24.535Z,39.43
2023-09-24T13:28:58.049Z,39.42
2023-09-24T13:31:31.399Z,39.62
2023-09-24T13:34:06.239Z,40.41
2023-09-24T13:36:41.038Z,41.46
2023-09-24T13:39:14.806Z,39.12
2023-09-24T13:41:47.984Z,39.95
2023-09-24T13:44:21.151Z,39.37
2023-09-24T13:46:54.491Z,40.55
2023-09-24T13:49:29.686Z,40.76
2023-09-24T13:52:04.458Z,40.38
2023-09-24T13:54:37.989Z,39.52
2023-09-24T13:57:12.700Z,39.82
2023-09-24T13:59:45.906Z,40.97
2023-09-24T14:02:21.785Z,40.84
2023-09-24T14:04:56.269Z,40.75
2023-09-24T14:07:29.397Z,41.12
2023-09-24T14:10:19.974Z,39.58
2023-09-24T14:12:53.122Z,39.25
2023-09-24T14:15:26.275Z,39.39
2023-09-24T14:18:13.219Z,41.14
2023-09-24T14:20:48.760Z,39.16
2023-09-24T14:23:21.951Z,38.54
2023-09-24T14:25:55.206Z,39.02
2023-09-24T14:28:28.301Z,38.89
2023-09-24T14:31:05.143Z,37.81
2023-09-24T14:33:38.373Z,39.78
2023-09-24T14:36:12.881Z,39.41
2023-09-24T14:38:46.057Z,39.21
2023-09-24T14:41:19.191Z,38.25
2023-09-24T14:43:52.266Z,39.98
2023-09-24T14:46:25.457Z,39.68
2023-09-24T14:48:58.785Z,40.20
2023-09-24T14:51:35.952Z,38.91
2023-09-24T14:54:10.157Z,38.26
2023-09-24T14:56:43.486Z,37.49
2023-09-24T14:59:16.607Z,37.75
2023-09-24T15:01:49.841Z,37.29
2023-09-24T15:04:23.048Z,38.32
2023-09-24T15:06:57.537Z,39.17
2023-09-24T15:09:31.077Z,37.90
2023-09-24T15:12:06.358Z,37.11
2023-09-24T15:14:39.463Z,37.73
2023-09-24T15:17:12.708Z,37.70
2023-09-24T15:19:46.339Z,38.90
2023-09-24T15:22:20.739Z,37.32
2023-09-24T15:24:53.804Z,37.62
2023-09-24T15:27:28.242Z,39.03
2023-09-24T15:30:02.962Z,39.30
2023-09-24T15:32:36.098Z,40.45
2023-09-24T15:35:10.401Z,38.02
2023-09-24T15:37:44.748Z,37.33
2023-09-24T15:40:18.215Z,37.54
2023-09-24T15:42:51.348Z,38.03
2023-09-24T15:45:24.579Z,38.40
2023-09-24T15:47:58.115Z,37.57
2023-09-24T15:50:32.647Z,37.84
2023-09-24T15:53:07.104Z,40.04
2023-09-24T15:55:42.213Z,38.44
2023-09-24T15:58:16.885Z,38.13
2023-09-24T16:00:50.547Z,39.09
2023-09-24T16:03:23.650Z,38.36
2023-09-24T16:05:56.993Z,38.68
2023-09-24T16:08:32.446Z,40.29
2023-09-24T16:11:05.503Z,39.95
2023-09-24T16:13:41.019Z,39.42
2023-09-24T16:16:14.603Z,40.17
2023-09-24T16:18:47.752Z,40.14
2023-09-24T16:21:20.855Z,40.89
2023-09-24T16:23:55.504Z,42.57
2023-09-24T16:26:28.618Z,42.88
2023-09-24T16:29:01.723Z,43.56
2023-09-24T16:31:34.929Z,44.19
2023-09-24T16:34:11.231Z,45.74
2023-09-24T16:36:44.438Z,46.44
2023-09-24T16:39:21.308Z,47.00
2023-09-24T16:41:54.370Z,48.89
2023-09-24T16:44:29.663Z,49.25
2023-09-24T16:47:02.988Z,49.41
2023-09-24T16:49:38.746Z,50.19
2023-09-24T16:52:11.999Z,50.54
2023-09-24T16:54:47.636Z,50.80
2023-09-24T16:57:20.884Z,51.48
2023-09-24T16:59:54.324Z,51.01
2023-09-24T17:02:27.578Z,50.64
2023-09-24T17:05:00.916Z,50.10
2023-09-24T17:07:34.845Z,51.32
2023-09-24T17:10:11.943Z,52.53
2023-09-24T17:12:45.669Z,52.83
2023-09-24T17:15:19.490Z,54.16
2023-09-24T17:17:52.720Z,53.92
2023-09-24T17:20:26.558Z,54.78
2023-09-24T17:22:59.722Z,55.21
2023-09-24T17:25:34.405Z,55.81
2023-09-24T17:28:07.783Z,56.66
2023-09-24T17:30:41.090Z,56.60
2023-09-24T17:33:18.943Z,57.43
2023-09-24T17:35:52.368Z,57.78
2023-09-24T17:38:25.501Z,58.45
2023-09-24T17:41:04.250Z,59.29
2023-09-24T17:43:37.431Z,60.01
2023-09-24T17:46:17.195Z,60.66
2023-09-24T17:48:50.720Z,59.36
2023-09-24T17:51:23.918Z,60.18
2023-09-24T17:53:57.090Z,60.78
2023-09-24T17:56:31.624Z,60.46
2023-09-24T17:59:04.742Z,60.94
2023-09-24T18:01:37.923Z,61.19
2023-09-24T18:04:11.110Z,61.86
2023-09-24T18:06:44.303Z,63.00
2023-09-24T18:09:18.156Z,64.42
2023-09-24T18:11:55.818Z,65.31
2023-09-24T18:14:34.309Z,66.24
2023-09-24T18:17:07.995Z,66.82
2023-09-24T18:19:41.861Z,67.12
2023-09-24T18:22:14.986Z,67.49
2023-09-24T18:24:48.179Z,68.09
2023-09-24T18:27:22.807Z,68.88
2023-09-24T18:29:56.026Z,69.21
2023-09-24T18:32:29.192Z,69.38
2023-09-24T18:35:02.666Z,70.03
2023-09-24T18:37:35.806Z,70.69
2023-09-24T18:40:10.313Z,71.47
2023-09-24T18:42:45.410Z,71.58
2023-09-24T18:45:18.545Z,72.02
2023-09-24T18:47:51.954Z,72.58
2023-09-24T18:50:25.296Z,73.05
2023-09-24T18:53:00.683Z,73.15
2023-09-24T18:55:33.991Z,73.54
2023-09-24T18:58:08.667Z,73.82
2023-09-24T19:00:42.030Z,73.64
2023-09-24T19:03:16.047Z,73.85
2023-09-24T19:05:49.413Z,73.65
2023-09-24T19:08:23.442Z,74.06
2023-09-24T19:10:58.591Z,74.65
2023-09-24T19:13:33.110Z,74.43
2023-09-24T19:16:07.919Z,74.30
2023-09-24T19:18:41.369Z,74.52
2023-09-24T19:21:14.573Z,74.71
2023-09-24T19:23:47.915Z,75.09
2023-09-24T19:26:21.168Z,75.30
2023-09-24T19:28:55.733Z,75.56
2023-09-24T19:31:28.919Z,75.77
2023-09-24T19:34:02.260Z,76.27
2023-09-24T19:36:35.491Z,76.56
2023-09-24T19:39:09.215Z,77.01
2023-09-24T19:41:42.356Z,77.19
2023-09-24T19:44:20.130Z,77.07
2023-09-24T19:46:53.337Z,77.26
2023-09-24T19:49:28.755Z,77.36
2023-09-24T19:52:01.850Z,77.19
2023-09-24T19:54:35.113Z,77.17
2023-09-24T19:57:08.251Z,77.40
2023-09-24T19:59:42.812Z,77.87
2023-09-24T20:02:16.221Z,77.92
2023-09-24T20:04:49.458Z,77.92
2023-09-24T20:07:22.567Z,77.89
2023-09-24T20:09:58.314Z,78.19
2023-09-24T20:12:32.155Z,77.36
2023-09-24T20:15:09.383Z,75.87
2023-09-24T20:17:42.516Z,75.01
2023-09-24T20:20:16.441Z,73.13
2023-09-24T20:22:51.871Z,72.22
2023-09-24T20:25:32.786Z,72.23
2023-09-24T20:28:06.450Z,71.21
2023-09-24T20:30:40.954Z,70.87
2023-09-24T20:33:28.063Z,70.16
2023-09-24T20:36:03.405Z,70.28
2023-09-24T20:38:36.838Z,69.72
2023-09-24T20:41:14.860Z,68.87
2023-09-24T20:43:48.281Z,68.56
2023-09-24T20:46:24.525Z,68.55
2023-09-24T20:48:57.685Z,68.47
2023-09-24T20:51:31.118Z,68.34
2023-09-24T20:54:05.003Z,68.02
2023-09-24T20:56:40.320Z,68.09
2023-09-24T20:59:23.526Z,67.91
2023-09-24T21:02:04.638Z,67.48
2023-09-24T21:04:38.616Z,67.42
2023-09-24T21:07:13.528Z,67.84
2023-09-24T21:09:46.794Z,67.70
2023-09-24T21:12:22.641Z,67.23
2023-09-24T21:14:56.855Z,67.48
2023-09-24T21:17:31.387Z,67.43
2023-09-24T21:20:06.406Z,67.07
2023-09-24T21:22:39.578Z,67.26
2023-09-24T21:25:15.101Z,66.80
2023-09-24T21:27:48.268Z,66.74
2023-09-24T21:30:21.926Z,66.94
2023-09-24T21:32:56.628Z,66.33
2023-09-24T21:35:30.963Z,66.31
2023-09-24T21:38:04.211Z,66.41
2023-09-24T21:40:37.362Z,66.60
2023-09-24T21:43:10.964Z,66.52
2023-09-24T21:45:44.139Z,66.58
2023-09-24T21:48:18.719Z,66.66
2023-09-24T21:50:52.064Z,66.61
2023-09-24T21:53:25.242Z,66.45
2023-09-24T21:55:58.489Z,66.42
2023-09-24T21:58:31.629Z,66.47
2023-09-24T22:01:05.726Z,66.50
2023-09-24T22:03:40.249Z,66.82
2023-09-24T22:06:13.950Z,66.96
2023-09-24T22:08:47.350Z,66.69
2023-09-24T22:11:20.638Z,66.74
2023-09-24T22:13:53.851Z,66.75
2023-09-24T22:16:26.971Z,67.17
2023-09-24T22:19:01.505Z,67.07
2023-09-24T22:21:35.163Z,66.87
2023-09-24T22:24:09.302Z,67.05
2023-09-24T22:26:42.481Z,66.78
2023-09-24T22:29:15.640Z,67.26
2023-09-24T22:31:50.125Z,67.31
2023-09-24T22:34:24.759Z,67.44
2023-09-24T22:36:57.911Z,67.25
2023-09-24T22:39:31.112Z,67.28
2023-09-24T22:42:04.440Z,67.66
2023-09-24T22:44:37.698Z,68.18
2023-09-24T22:47:10.839Z,68.03
2023-09-24T22:49:45.432Z,68.52
2023-09-24T22:52:18.698Z,68.67
2023-09-24T22:54:52.590Z,69.23
2023-09-24T22:57:28.346Z,70.23
2023-09-24T23:00:02.070Z,71.15
2023-09-24T23:02:35.313Z,71.62
2023-09-24T23:05:10.581Z,72.62
2023-09-24T23:07:46.375Z,73.56
2023-09-24T23:10:20.254Z,74.18
2023-09-24T23:12:53.415Z,74.39
2023-09-24T23:15:27.190Z,75.02
2023-09-24T23:18:00.548Z,75.75
2023-09-24T23:20:35.219Z,75.93
2023-09-24T23:23:08.341Z,76.00
2023-09-24T23:25:44.931Z,76.15
2023-09-24T23:28:18.374Z,76.59
2023-09-24T23:30:53.730Z,76.38
2023-09-24T23:33:27.196Z,76.67
2023-09-24T23:36:01.775Z,76.91
2023-09-24T23:38:35.052Z,76.94
2023-09-24T23:41:08.186Z,77.17
2023-09-24T23:43:41.330Z,77.49
2023-09-24T23:46:14.479Z,78.24
2023-09-24T23:48:47.882Z,78.13
2023-09-24T23:51:22.561Z,77.75
2023-09-24T23:53:55.869Z,78.22
2023-09-24T23:56:29.085Z,77.79
2023-09-24T23:59:02.291Z,77.70
